sensor_id;sensor_type;location;lat;lon;timestamp;noise_LAeq;noise_LA_min;noise_LA_max;noise_LA01;noise_LA95
70077;Laerm;57448;51.490;5.436;2023-09-19T00:01:40;43.10;39.73;48.03;;
70077;Laerm;57448;51.490;5.436;2023-09-19T00:04:07;41.73;36.97;50.46;;
70077;Laerm;57448;51.490;5.436;2023-09-19T00:06:38;40.52;37.49;46.62;;
70077;Laerm;57448;51.490;5.436;2023-09-19T00:09:03;39.94;36.08;45.43;;
70077;Laerm;57448;51.490;5.436;2023-09-19T00:11:29;40.46;37.17;45.34;;
70077;Laerm;57448;51.490;5.436;2023-09-19T00:13:54;40.62;36.95;45.70;;
70077;Laerm;57448;51.490;5.436;2023-09-19T00:16:20;42.26;36.51;52.69;;
70077;Laerm;57448;51.490;5.436;2023-09-19T00:18:45;42.35;38.08;52.52;;
70077;Laerm;57448;51.490;5.436;2023-09-19T00:21:11;41.81;37.73;46.25;;
70077;Laerm;57448;51.490;5.436;2023-09-19T00:23:37;40.82;35.94;50.49;;
70077;Laerm;57448;51.490;5.436;2023-09-19T00:26:02;41.94;38.33;52.42;;
70077;Laerm;57448;51.490;5.436;2023-09-19T00:28:28;42.73;38.28;49.31;;
70077;Laerm;57448;51.490;5.436;2023-09-19T00:30:54;42.15;37.95;47.65;;
70077;Laerm;57448;51.490;5.436;2023-09-19T00:33:20;42.08;38.30;45.66;;
70077;Laerm;57448;51.490;5.436;2023-09-19T00:35:49;44.97;36.56;50.95;;
70077;Laerm;57448;51.490;5.436;2023-09-19T00:38:14;41.23;37.22;46.98;;
70077;Laerm;57448;51.490;5.436;2023-09-19T00:40:46;44.18;38.96;50.21;;
70077;Laerm;57448;51.490;5.436;2023-09-19T00:43:11;39.63;35.45;44.73;;
70077;Laerm;57448;51.490;5.436;2023-09-19T00:45:37;40.04;36.06;46.39;;
70077;Laerm;57448;51.490;5.436;2023-09-19T00:48:07;42.16;37.13;48.93;;
70077;Laerm;57448;51.490;5.436;2023-09-19T00:50:34;40.32;36.44;43.99;;
70077;Laerm;57448;51.490;5.436;2023-09-19T00:53:00;41.45;37.20;47.38;;
70077;Laerm;57448;51.490;5.436;2023-09-19T00:55:25;42.89;37.79;48.41;;
70077;Laerm;57448;51.490;5.436;2023-09-19T00:57:51;42.84;38.34;46.83;;
70077;Laerm;57448;51.490;5.436;2023-09-19T01:00:17;41.80;36.97;52.16;;
70077;Laerm;57448;51.490;5.436;2023-09-19T01:02:45;42.59;38.66;47.71;;
70077;Laerm;57448;51.490;5.436;2023-09-19T01:05:11;45.47;39.06;51.94;;
70077;Laerm;57448;51.490;5.436;2023-09-19T01:07:37;41.95;38.72;48.44;;
70077;Laerm;57448;51.490;5.436;2023-09-19T01:10:04;42.99;38.83;49.18;;
70077;Laerm;57448;51.490;5.436;2023-09-19T01:18:03;43.10;39.55;50.81;;
70077;Laerm;57448;51.490;5.436;2023-09-19T01:28:32;43.99;39.10;50.43;;
70077;Laerm;57448;51.490;5.436;2023-09-19T01:31:03;43.80;39.12;49.50;;
70077;Laerm;57448;51.490;5.436;2023-09-19T01:33:47;41.01;37.35;48.18;;
70077;Laerm;57448;51.490;5.436;2023-09-19T01:36:16;40.68;36.81;46.01;;
70077;Laerm;57448;51.490;5.436;2023-09-19T01:38:41;41.23;37.25;46.78;;
70077;Laerm;57448;51.490;5.436;2023-09-19T01:41:12;42.02;38.32;48.54;;
70077;Laerm;57448;51.490;5.436;2023-09-19T01:43:41;40.83;35.93;47.37;;
70077;Laerm;57448;51.490;5.436;2023-09-19T01:51:11;42.79;37.64;52.96;;
70077;Laerm;57448;51.490;5.436;2023-09-19T01:56:05;43.26;39.40;47.04;;
70077;Laerm;57448;51.490;5.436;2023-09-19T01:58:39;41.81;38.31;45.74;;
70077;Laerm;57448;51.490;5.436;2023-09-19T02:01:08;41.40;36.58;48.58;;
70077;Laerm;57448;51.490;5.436;2023-09-19T02:03:35;40.81;36.43;46.49;;
70077;Laerm;57448;51.490;5.436;2023-09-19T02:06:01;42.21;38.00;46.69;;
70077;Laerm;57448;51.490;5.436;2023-09-19T02:08:28;42.85;38.74;47.95;;
70077;Laerm;57448;51.490;5.436;2023-09-19T02:10:54;41.05;37.98;44.91;;
70077;Laerm;57448;51.490;5.436;2023-09-19T02:13:19;42.48;38.35;48.12;;
70077;Laerm;57448;51.490;5.436;2023-09-19T02:15:46;41.52;37.82;45.85;;
70077;Laerm;57448;51.490;5.436;2023-09-19T02:18:11;41.48;37.25;45.99;;
70077;Laerm;57448;51.490;5.436;2023-09-19T02:20:37;40.99;37.40;46.17;;
70077;Laerm;57448;51.490;5.436;2023-09-19T02:23:02;41.31;37.98;45.68;;
70077;Laerm;57448;51.490;5.436;2023-09-19T02:25:28;41.46;37.64;48.73;;
70077;Laerm;57448;51.490;5.436;2023-09-19T02:27:54;43.88;39.33;54.07;;
70077;Laerm;57448;51.490;5.436;2023-09-19T02:30:19;42.29;39.09;46.19;;
70077;Laerm;57448;51.490;5.436;2023-09-19T02:32:50;42.83;39.48;48.38;;
70077;Laerm;57448;51.490;5.436;2023-09-19T02:35:15;42.69;40.16;47.57;;
70077;Laerm;57448;51.490;5.436;2023-09-19T02:37:41;43.02;39.14;47.78;;
70077;Laerm;57448;51.490;5.436;2023-09-19T02:40:06;44.03;40.63;52.09;;
70077;Laerm;57448;51.490;5.436;2023-09-19T02:42:43;42.36;39.78;49.91;;
70077;Laerm;57448;51.490;5.436;2023-09-19T02:45:13;42.06;39.27;46.58;;
70077;Laerm;57448;51.490;5.436;2023-09-19T02:47:40;44.43;38.82;50.61;;
70077;Laerm;57448;51.490;5.436;2023-09-19T02:50:05;42.53;39.56;45.89;;
70077;Laerm;57448;51.490;5.436;2023-09-19T02:52:30;44.18;39.06;48.94;;
70077;Laerm;57448;51.490;5.436;2023-09-19T02:54:56;42.91;39.89;47.04;;
70077;Laerm;57448;51.490;5.436;2023-09-19T02:57:22;43.44;40.29;48.86;;
70077;Laerm;57448;51.490;5.436;2023-09-19T02:59:49;42.32;39.45;45.25;;
70077;Laerm;57448;51.490;5.436;2023-09-19T03:02:14;43.02;39.16;47.74;;
70077;Laerm;57448;51.490;5.436;2023-09-19T03:04:40;42.83;39.84;45.72;;
70077;Laerm;57448;51.490;5.436;2023-09-19T03:07:06;43.44;40.53;46.84;;
70077;Laerm;57448;51.490;5.436;2023-09-19T03:09:31;43.22;40.18;48.06;;
70077;Laerm;57448;51.490;5.436;2023-09-19T03:11:57;43.60;40.66;46.67;;
70077;Laerm;57448;51.490;5.436;2023-09-19T03:14:22;44.10;41.14;47.94;;
70077;Laerm;57448;51.490;5.436;2023-09-19T03:16:48;43.82;41.35;53.75;;
70077;Laerm;57448;51.490;5.436;2023-09-19T03:19:13;43.88;41.28;47.31;;
70077;Laerm;57448;51.490;5.436;2023-09-19T03:21:40;43.86;41.68;48.09;;
70077;Laerm;57448;51.490;5.436;2023-09-19T03:24:05;44.54;42.12;47.79;;
70077;Laerm;57448;51.490;5.436;2023-09-19T03:26:31;44.31;42.49;46.54;;
70077;Laerm;57448;51.490;5.436;2023-09-19T03:28:56;44.30;41.94;46.92;;
70077;Laerm;57448;51.490;5.436;2023-09-19T03:31:22;45.93;42.64;49.68;;
70077;Laerm;57448;51.490;5.436;2023-09-19T03:33:47;45.35;43.15;48.25;;
70077;Laerm;57448;51.490;5.436;2023-09-19T03:36:12;46.13;44.13;49.28;;
70077;Laerm;57448;51.490;5.436;2023-09-19T03:38:38;46.19;43.70;48.73;;
70077;Laerm;57448;51.490;5.436;2023-09-19T03:41:03;46.15;43.65;48.77;;
70077;Laerm;57448;51.490;5.436;2023-09-19T03:43:29;46.46;44.25;48.35;;
70077;Laerm;57448;51.490;5.436;2023-09-19T03:45:54;46.58;44.51;50.44;;
70077;Laerm;57448;51.490;5.436;2023-09-19T03:48:20;46.43;44.02;48.98;;
70077;Laerm;57448;51.490;5.436;2023-09-19T03:50:46;47.43;44.68;52.04;;
70077;Laerm;57448;51.490;5.436;2023-09-19T03:53:12;47.19;44.78;51.36;;
70077;Laerm;57448;51.490;5.436;2023-09-19T03:55:37;46.64;43.91;49.34;;
70077;Laerm;57448;51.490;5.436;2023-09-19T03:58:04;47.28;45.30;49.50;;
70077;Laerm;57448;51.490;5.436;2023-09-19T04:00:29;47.73;45.37;51.69;;
70077;Laerm;57448;51.490;5.436;2023-09-19T04:02:55;47.71;45.10;52.33;;
70077;Laerm;57448;51.490;5.436;2023-09-19T04:05:21;47.83;44.95;51.89;;
70077;Laerm;57448;51.490;5.436;2023-09-19T04:07:47;47.49;44.82;51.37;;
70077;Laerm;57448;51.490;5.436;2023-09-19T04:10:12;47.76;44.96;50.07;;
70077;Laerm;57448;51.490;5.436;2023-09-19T04:12:39;47.63;45.47;50.47;;
70077;Laerm;57448;51.490;5.436;2023-09-19T04:15:05;48.39;46.19;53.43;;
70077;Laerm;57448;51.490;5.436;2023-09-19T04:17:31;47.38;44.98;51.41;;
70077;Laerm;57448;51.490;5.436;2023-09-19T04:19:58;48.05;45.29;64.30;;
70077;Laerm;57448;51.490;5.436;2023-09-19T04:22:23;48.33;46.22;52.86;;
70077;Laerm;57448;51.490;5.436;2023-09-19T04:24:48;47.85;45.41;50.53;;
70077;Laerm;57448;51.490;5.436;2023-09-19T04:27:14;47.52;45.45;51.60;;
70077;Laerm;57448;51.490;5.436;2023-09-19T04:29:40;47.83;45.98;50.97;;
70077;Laerm;57448;51.490;5.436;2023-09-19T04:32:06;48.10;45.99;50.94;;
70077;Laerm;57448;51.490;5.436;2023-09-19T04:34:32;47.81;45.88;50.26;;
70077;Laerm;57448;51.490;5.436;2023-09-19T04:36:59;48.84;47.09;52.23;;
70077;Laerm;57448;51.490;5.436;2023-09-19T04:39:25;48.44;46.71;52.41;;
70077;Laerm;57448;51.490;5.436;2023-09-19T04:41:51;48.81;46.25;51.50;;
70077;Laerm;57448;51.490;5.436;2023-09-19T04:44:17;48.10;46.03;52.24;;
70077;Laerm;57448;51.490;5.436;2023-09-19T04:46:43;48.35;46.34;52.29;;
70077;Laerm;57448;51.490;5.436;2023-09-19T04:49:08;48.24;45.87;56.25;;
70077;Laerm;57448;51.490;5.436;2023-09-19T04:51:34;48.04;45.12;51.76;;
70077;Laerm;57448;51.490;5.436;2023-09-19T04:54:01;48.37;46.20;51.18;;
70077;Laerm;57448;51.490;5.436;2023-09-19T04:56:26;56.97;46.15;73.83;;
70077;Laerm;57448;51.490;5.436;2023-09-19T04:58:53;57.83;46.60;73.26;;
70077;Laerm;57448;51.490;5.436;2023-09-19T05:01:19;54.31;46.40;70.51;;
70077;Laerm;57448;51.490;5.436;2023-09-19T05:03:44;48.55;45.98;51.06;;
70077;Laerm;57448;51.490;5.436;2023-09-19T05:06:10;48.91;45.56;52.03;;
70077;Laerm;57448;51.490;5.436;2023-09-19T05:08:35;50.76;47.14;64.87;;
70077;Laerm;57448;51.490;5.436;2023-09-19T05:11:04;52.99;46.61;66.73;;
70077;Laerm;57448;51.490;5.436;2023-09-19T05:13:29;48.89;46.68;51.92;;
70077;Laerm;57448;51.490;5.436;2023-09-19T05:15:59;48.95;46.95;52.22;;
70077;Laerm;57448;51.490;5.436;2023-09-19T05:18:25;49.47;46.66;52.37;;
70077;Laerm;57448;51.490;5.436;2023-09-19T05:20:50;51.17;47.79;55.61;;
70077;Laerm;57448;51.490;5.436;2023-09-19T05:23:16;50.73;48.36;54.89;;
70077;Laerm;57448;51.490;5.436;2023-09-19T05:25:41;50.16;47.19;53.97;;
70077;Laerm;57448;51.490;5.436;2023-09-19T05:28:11;50.07;47.26;53.09;;
70077;Laerm;57448;51.490;5.436;2023-09-19T05:30:40;49.90;47.39;62.83;;
70077;Laerm;57448;51.490;5.436;2023-09-19T05:33:06;49.79;47.13;53.36;;
70077;Laerm;57448;51.490;5.436;2023-09-19T05:35:32;49.89;47.39;54.32;;
70077;Laerm;57448;51.490;5.436;2023-09-19T05:37:58;50.26;47.16;55.11;;
70077;Laerm;57448;51.490;5.436;2023-09-19T05:40:23;49.89;47.74;53.69;;
70077;Laerm;57448;51.490;5.436;2023-09-19T05:42:49;50.27;47.68;53.84;;
70077;Laerm;57448;51.490;5.436;2023-09-19T05:45:16;49.54;46.78;59.19;;
70077;Laerm;57448;51.490;5.436;2023-09-19T05:47:47;49.76;47.39;52.65;;
70077;Laerm;57448;51.490;5.436;2023-09-19T05:50:12;49.68;47.02;54.59;;
70077;Laerm;57448;51.490;5.436;2023-09-19T05:52:39;50.11;46.73;55.11;;
70077;Laerm;57448;51.490;5.436;2023-09-19T05:55:06;49.98;47.32;53.91;;
70077;Laerm;57448;51.490;5.436;2023-09-19T05:57:35;49.69;45.82;54.41;;
70077;Laerm;57448;51.490;5.436;2023-09-19T06:00:01;49.60;47.28;53.81;;
70077;Laerm;57448;51.490;5.436;2023-09-19T06:02:27;50.35;47.43;53.19;;
70077;Laerm;57448;51.490;5.436;2023-09-19T06:04:54;50.35;46.42;59.06;;
70077;Laerm;57448;51.490;5.436;2023-09-19T06:07:20;50.02;47.02;54.84;;
70077;Laerm;57448;51.490;5.436;2023-09-19T06:09:47;52.34;47.65;64.24;;
70077;Laerm;57448;51.490;5.436;2023-09-19T06:12:12;50.84;46.84;61.74;;
70077;Laerm;57448;51.490;5.436;2023-09-19T06:14:42;53.35;46.46;63.60;;
70077;Laerm;57448;51.490;5.436;2023-09-19T06:17:08;50.97;47.05;71.61;;
70077;Laerm;57448;51.490;5.436;2023-09-19T06:19:33;49.81;47.46;53.42;;
70077;Laerm;57448;51.490;5.436;2023-09-19T06:21:59;49.76;47.08;54.45;;
70077;Laerm;57448;51.490;5.436;2023-09-19T06:24:24;50.80;47.30;63.42;;
70077;Laerm;57448;51.490;5.436;2023-09-19T06:26:50;50.35;47.04;55.43;;
70077;Laerm;57448;51.490;5.436;2023-09-19T06:29:17;49.52;46.72;54.93;;
70077;Laerm;57448;51.490;5.436;2023-09-19T06:31:43;48.91;46.52;52.81;;
70077;Laerm;57448;51.490;5.436;2023-09-19T06:34:09;49.39;45.83;55.22;;
70077;Laerm;57448;51.490;5.436;2023-09-19T06:36:34;53.47;46.64;65.24;;
70077;Laerm;57448;51.490;5.436;2023-09-19T06:39:00;50.15;46.66;54.02;;
70077;Laerm;57448;51.490;5.436;2023-09-19T06:41:25;53.46;48.26;65.61;;
70077;Laerm;57448;51.490;5.436;2023-09-19T06:43:50;50.54;48.19;54.25;;
70077;Laerm;57448;51.490;5.436;2023-09-19T06:46:18;50.54;46.83;55.41;;
70077;Laerm;57448;51.490;5.436;2023-09-19T06:48:43;49.36;46.64;59.41;;
70077;Laerm;57448;51.490;5.436;2023-09-19T06:51:09;50.12;46.74;54.65;;
70077;Laerm;57448;51.490;5.436;2023-09-19T06:53:35;49.70;47.16;52.69;;
70077;Laerm;57448;51.490;5.436;2023-09-19T06:56:01;48.33;45.50;51.29;;
70077;Laerm;57448;51.490;5.436;2023-09-19T06:58:26;49.37;47.15;58.83;;
70077;Laerm;57448;51.490;5.436;2023-09-19T07:00:52;49.01;46.16;55.47;;
70077;Laerm;57448;51.490;5.436;2023-09-19T07:03:17;49.63;45.71;55.11;;
70077;Laerm;57448;51.490;5.436;2023-09-19T07:05:43;50.53;46.68;54.75;;
70077;Laerm;57448;51.490;5.436;2023-09-19T07:08:09;48.65;46.38;53.44;;
70077;Laerm;57448;51.490;5.436;2023-09-19T07:10:36;48.45;45.39;53.35;;
70077;Laerm;57448;51.490;5.436;2023-09-19T07:13:02;53.43;46.16;64.85;;
70077;Laerm;57448;51.490;5.436;2023-09-19T07:15:28;49.83;46.81;57.31;;
70077;Laerm;57448;51.490;5.436;2023-09-19T07:17:55;49.57;46.24;59.96;;
70077;Laerm;57448;51.490;5.436;2023-09-19T07:20:22;48.93;46.57;54.09;;
70077;Laerm;57448;51.490;5.436;2023-09-19T07:22:48;53.76;47.23;68.46;;
70077;Laerm;57448;51.490;5.436;2023-09-19T07:25:16;53.89;46.67;66.41;;
70077;Laerm;57448;51.490;5.436;2023-09-19T07:27:41;53.49;47.45;66.93;;
70077;Laerm;57448;51.490;5.436;2023-09-19T07:30:07;48.54;46.04;51.35;;
70077;Laerm;57448;51.490;5.436;2023-09-19T07:32:33;51.79;46.83;60.87;;
70077;Laerm;57448;51.490;5.436;2023-09-19T07:35:00;51.90;45.94;62.74;;
70077;Laerm;57448;51.490;5.436;2023-09-19T07:37:25;49.36;45.49;54.46;;
70077;Laerm;57448;51.490;5.436;2023-09-19T07:39:50;49.90;45.62;55.37;;
70077;Laerm;57448;51.490;5.436;2023-09-19T07:42:16;49.16;46.17;54.48;;
70077;Laerm;57448;51.490;5.436;2023-09-19T07:44:43;49.57;44.72;54.05;;
70077;Laerm;57448;51.490;5.436;2023-09-19T07:47:08;49.90;45.50;58.23;;
70077;Laerm;57448;51.490;5.436;2023-09-19T07:49:34;48.12;44.64;59.79;;
70077;Laerm;57448;51.490;5.436;2023-09-19T07:52:00;48.41;45.41;66.04;;
70077;Laerm;57448;51.490;5.436;2023-09-19T07:54:25;54.11;44.16;66.03;;
70077;Laerm;57448;51.490;5.436;2023-09-19T07:56:51;49.61;44.92;59.73;;
70077;Laerm;57448;51.490;5.436;2023-09-19T07:59:16;47.53;44.30;52.08;;
70077;Laerm;57448;51.490;5.436;2023-09-19T08:01:42;48.73;44.82;55.14;;
70077;Laerm;57448;51.490;5.436;2023-09-19T08:04:09;50.51;46.08;56.47;;
70077;Laerm;57448;51.490;5.436;2023-09-19T08:06:34;49.78;45.70;55.86;;
70077;Laerm;57448;51.490;5.436;2023-09-19T08:09:00;50.59;46.95;55.62;;
70077;Laerm;57448;51.490;5.436;2023-09-19T08:11:25;47.11;44.81;53.55;;
70077;Laerm;57448;51.490;5.436;2023-09-19T08:13:51;50.25;45.02;57.16;;
70077;Laerm;57448;51.490;5.436;2023-09-19T08:16:17;50.23;45.08;57.33;;
70077;Laerm;57448;51.490;5.436;2023-09-19T08:18:48;50.45;45.78;58.55;;
70077;Laerm;57448;51.490;5.436;2023-09-19T08:21:13;50.45;46.98;56.05;;
70077;Laerm;57448;51.490;5.436;2023-09-19T08:23:39;49.98;45.68;59.25;;
70077;Laerm;57448;51.490;5.436;2023-09-19T08:26:05;48.25;43.28;53.98;;
70077;Laerm;57448;51.490;5.436;2023-09-19T08:28:33;50.40;45.39;54.56;;
70077;Laerm;57448;51.490;5.436;2023-09-19T08:31:05;53.69;46.47;66.58;;
70077;Laerm;57448;51.490;5.436;2023-09-19T08:33:31;53.36;44.57;67.41;;
70077;Laerm;57448;51.490;5.436;2023-09-19T08:35:57;52.82;45.19;63.11;;
70077;Laerm;57448;51.490;5.436;2023-09-19T08:38:22;55.03;47.37;68.98;;
70077;Laerm;57448;51.490;5.436;2023-09-19T08:40:47;48.46;45.90;52.01;;
70077;Laerm;57448;51.490;5.436;2023-09-19T08:43:13;48.76;46.03;54.23;;
70077;Laerm;57448;51.490;5.436;2023-09-19T08:45:38;52.95;47.09;57.54;;
70077;Laerm;57448;51.490;5.436;2023-09-19T08:48:24;49.43;46.04;61.95;;
70077;Laerm;57448;51.490;5.436;2023-09-19T08:51:00;53.75;46.18;71.47;;
70077;Laerm;57448;51.490;5.436;2023-09-19T08:56:00;52.46;46.87;58.70;;
70077;Laerm;57448;51.490;5.436;2023-09-19T08:58:27;52.85;46.99;57.65;;
70077;Laerm;57448;51.490;5.436;2023-09-19T09:00:56;52.69;45.51;64.23;;
70077;Laerm;57448;51.490;5.436;2023-09-19T09:03:23;51.18;46.61;64.46;;
70077;Laerm;57448;51.490;5.436;2023-09-19T09:05:49;50.32;46.62;54.33;;
70077;Laerm;57448;51.490;5.436;2023-09-19T09:08:16;54.45;47.20;65.09;;
70077;Laerm;57448;51.490;5.436;2023-09-19T09:10:44;51.50;46.85;56.93;;
70077;Laerm;57448;51.490;5.436;2023-09-19T09:13:09;51.51;47.05;57.27;;
70077;Laerm;57448;51.490;5.436;2023-09-19T09:15:35;51.68;46.00;59.47;;
70077;Laerm;57448;51.490;5.436;2023-09-19T09:18:01;51.76;45.33;60.37;;
70077;Laerm;57448;51.490;5.436;2023-09-19T09:20:27;50.71;45.57;58.80;;
70077;Laerm;57448;51.490;5.436;2023-09-19T09:22:54;50.05;45.47;56.45;;
70077;Laerm;57448;51.490;5.436;2023-09-19T09:25:19;48.34;44.57;55.07;;
70077;Laerm;57448;51.490;5.436;2023-09-19T09:28:09;50.49;45.40;58.03;;
70077;Laerm;57448;51.490;5.436;2023-09-19T09:30:34;52.01;46.32;57.34;;
70077;Laerm;57448;51.490;5.436;2023-09-19T09:33:14;55.84;48.78;65.27;;
70077;Laerm;57448;51.490;5.436;2023-09-19T09:35:47;53.35;48.42;61.71;;
70077;Laerm;57448;51.490;5.436;2023-09-19T09:38:17;53.41;49.22;59.82;;
70077;Laerm;57448;51.490;5.436;2023-09-19T09:40:50;53.06;48.19;67.93;;
70077;Laerm;57448;51.490;5.436;2023-09-19T09:43:27;51.57;46.02;58.10;;
70077;Laerm;57448;51.490;5.436;2023-09-19T09:46:06;52.58;46.52;63.07;;
70077;Laerm;57448;51.490;5.436;2023-09-19T09:48:33;57.52;49.35;68.47;;
70077;Laerm;57448;51.490;5.436;2023-09-19T09:51:03;56.54;47.76;67.88;;
70077;Laerm;57448;51.490;5.436;2023-09-19T09:53:32;54.68;47.14;62.82;;
70077;Laerm;57448;51.490;5.436;2023-09-19T09:55:59;52.35;47.18;58.06;;
70077;Laerm;57448;51.490;5.436;2023-09-19T09:58:25;53.90;48.06;59.62;;
70077;Laerm;57448;51.490;5.436;2023-09-19T10:00:57;53.28;47.50;58.86;;
70077;Laerm;57448;51.490;5.436;2023-09-19T10:03:37;53.06;48.21;62.20;;
70077;Laerm;57448;51.490;5.436;2023-09-19T10:06:12;50.63;46.33;55.03;;
70077;Laerm;57448;51.490;5.436;2023-09-19T10:09:06;50.73;45.38;57.05;;
70077;Laerm;57448;51.490;5.436;2023-09-19T10:11:31;54.65;49.18;59.71;;
70077;Laerm;57448;51.490;5.436;2023-09-19T10:13:58;53.84;48.41;62.84;;
70077;Laerm;57448;51.490;5.436;2023-09-19T10:16:27;55.33;49.47;64.63;;
70077;Laerm;57448;51.490;5.436;2023-09-19T10:18:55;51.96;47.81;59.96;;
70077;Laerm;57448;51.490;5.436;2023-09-19T10:21:23;52.76;48.54;58.47;;
70077;Laerm;57448;51.490;5.436;2023-09-19T10:23:49;50.03;46.54;57.48;;
70077;Laerm;57448;51.490;5.436;2023-09-19T10:26:17;52.87;44.71;64.22;;
70077;Laerm;57448;51.490;5.436;2023-09-19T10:28:43;57.87;50.45;68.60;;
70077;Laerm;57448;51.490;5.436;2023-09-19T10:31:12;60.61;50.58;85.26;;
70077;Laerm;57448;51.490;5.436;2023-09-19T10:33:39;55.41;49.47;63.40;;
70077;Laerm;57448;51.490;5.436;2023-09-19T10:36:06;56.09;48.62;63.71;;
70077;Laerm;57448;51.490;5.436;2023-09-19T10:38:33;53.45;49.24;58.78;;
70077;Laerm;57448;51.490;5.436;2023-09-19T10:41:00;51.98;47.26;58.58;;
70077;Laerm;57448;51.490;5.436;2023-09-19T10:43:31;50.93;46.39;55.18;;
70077;Laerm;57448;51.490;5.436;2023-09-19T10:45:58;54.52;48.81;60.81;;
70077;Laerm;57448;51.490;5.436;2023-09-19T10:48:25;53.72;47.95;61.33;;
70077;Laerm;57448;51.490;5.436;2023-09-19T10:53:16;54.59;48.04;63.61;;
70077;Laerm;57448;51.490;5.436;2023-09-19T10:55:47;53.75;47.96;58.75;;
70077;Laerm;57448;51.490;5.436;2023-09-19T10:58:23;51.75;46.61;58.03;;
70077;Laerm;57448;51.490;5.436;2023-09-19T11:00:50;50.77;46.72;57.25;;
70077;Laerm;57448;51.490;5.436;2023-09-19T11:03:19;55.18;48.01;67.21;;
70077;Laerm;57448;51.490;5.436;2023-09-19T11:06:08;55.05;48.23;62.21;;
70077;Laerm;57448;51.490;5.436;2023-09-19T11:11:42;52.67;49.20;67.81;;
70077;Laerm;57448;51.490;5.436;2023-09-19T11:14:13;53.16;46.78;61.18;;
70077;Laerm;57448;51.490;5.436;2023-09-19T11:16:39;49.20;46.33;53.02;;
70077;Laerm;57448;51.490;5.436;2023-09-19T11:19:04;53.00;47.55;60.95;;
70077;Laerm;57448;51.490;5.436;2023-09-19T11:26:50;50.77;45.97;55.14;;
70077;Laerm;57448;51.490;5.436;2023-09-19T11:31:51;50.76;46.87;55.10;;
70077;Laerm;57448;51.490;5.436;2023-09-19T11:37:03;53.32;47.40;59.57;;
70077;Laerm;57448;51.490;5.436;2023-09-19T11:39:29;57.88;48.71;76.66;;
70077;Laerm;57448;51.490;5.436;2023-09-19T11:41:55;56.44;50.55;63.48;;
70077;Laerm;57448;51.490;5.436;2023-09-19T11:49:17;54.36;48.45;63.77;;
70077;Laerm;57448;51.490;5.436;2023-09-19T11:51:48;54.12;48.58;59.30;;
70077;Laerm;57448;51.490;5.436;2023-09-19T11:54:15;50.86;45.88;56.87;;
70077;Laerm;57448;51.490;5.436;2023-09-19T11:56:43;57.00;46.96;70.60;;
70077;Laerm;57448;51.490;5.436;2023-09-19T11:59:09;57.21;50.69;65.81;;
70077;Laerm;57448;51.490;5.436;2023-09-19T12:01:34;61.02;51.81;68.66;;
70077;Laerm;57448;51.490;5.436;2023-09-19T12:04:03;54.34;48.03;63.79;;
70077;Laerm;57448;51.490;5.436;2023-09-19T12:06:29;54.36;49.54;65.36;;
70077;Laerm;57448;51.490;5.436;2023-09-19T12:08:55;53.57;48.75;63.55;;
70077;Laerm;57448;51.490;5.436;2023-09-19T12:11:26;52.86;47.88;59.81;;
70077;Laerm;57448;51.490;5.436;2023-09-19T12:13:52;55.78;49.02;64.03;;
70077;Laerm;57448;51.490;5.436;2023-09-19T12:16:19;53.97;47.80;61.68;;
70077;Laerm;57448;51.490;5.436;2023-09-19T12:18:47;54.08;47.60;63.12;;
70077;Laerm;57448;51.490;5.436;2023-09-19T12:21:25;55.50;48.97;61.16;;
70077;Laerm;57448;51.490;5.436;2023-09-19T12:23:59;54.51;48.63;62.94;;
70077;Laerm;57448;51.490;5.436;2023-09-19T12:26:27;50.24;46.11;56.48;;
70077;Laerm;57448;51.490;5.436;2023-09-19T12:28:54;56.47;49.85;68.19;;
70077;Laerm;57448;51.490;5.436;2023-09-19T12:31:20;52.57;48.11;59.37;;
70077;Laerm;57448;51.490;5.436;2023-09-19T12:33:46;59.25;48.17;69.68;;
70077;Laerm;57448;51.490;5.436;2023-09-19T12:36:21;60.88;48.52;75.44;;
70077;Laerm;57448;51.490;5.436;2023-09-19T12:38:53;59.55;52.09;72.13;;
70077;Laerm;57448;51.490;5.436;2023-09-19T12:41:20;55.42;49.40;67.83;;
70077;Laerm;57448;51.490;5.436;2023-09-19T12:43:47;53.08;49.13;67.67;;
70077;Laerm;57448;51.490;5.436;2023-09-19T12:46:12;53.26;47.41;61.31;;
70077;Laerm;57448;51.490;5.436;2023-09-19T12:48:38;52.04;46.79;64.07;;
70077;Laerm;57448;51.490;5.436;2023-09-19T12:51:09;54.53;47.91;61.86;;
70077;Laerm;57448;51.490;5.436;2023-09-19T12:56:05;54.86;49.45;62.11;;
70077;Laerm;57448;51.490;5.436;2023-09-19T12:58:33;52.46;48.62;57.88;;
70077;Laerm;57448;51.490;5.436;2023-09-19T13:01:00;53.47;46.06;58.90;;
70077;Laerm;57448;51.490;5.436;2023-09-19T13:03:26;51.41;47.51;58.22;;
70077;Laerm;57448;51.490;5.436;2023-09-19T13:06:00;50.94;46.98;56.63;;
70077;Laerm;57448;51.490;5.436;2023-09-19T13:08:39;53.79;47.63;60.16;;
70077;Laerm;57448;51.490;5.436;2023-09-19T13:11:13;52.00;48.13;60.78;;
70077;Laerm;57448;51.490;5.436;2023-09-19T13:16:04;49.47;46.41;56.07;;
70077;Laerm;57448;51.490;5.436;2023-09-19T13:21:32;52.72;47.42;56.47;;
70077;Laerm;57448;51.490;5.436;2023-09-19T13:24:18;54.90;49.18;62.41;;
70077;Laerm;57448;51.490;5.436;2023-09-19T13:26:43;53.17;49.04;60.76;;
70077;Laerm;57448;51.490;5.436;2023-09-19T13:29:09;55.07;49.11;65.73;;
70077;Laerm;57448;51.490;5.436;2023-09-19T13:31:34;53.82;48.95;58.50;;
70077;Laerm;57448;51.490;5.436;2023-09-19T13:33:59;51.66;47.48;56.55;;
70077;Laerm;57448;51.490;5.436;2023-09-19T13:36:25;53.48;49.15;60.89;;
70077;Laerm;57448;51.490;5.436;2023-09-19T13:38:50;50.84;46.35;55.33;;
70077;Laerm;57448;51.490;5.436;2023-09-19T13:41:18;50.06;46.46;54.49;;
70077;Laerm;57448;51.490;5.436;2023-09-19T13:43:43;51.29;47.32;58.00;;
70077;Laerm;57448;51.490;5.436;2023-09-19T13:46:13;53.84;48.09;67.45;;
70077;Laerm;57448;51.490;5.436;2023-09-19T13:48:41;52.05;46.73;58.82;;
70077;Laerm;57448;51.490;5.436;2023-09-19T13:51:06;50.15;46.03;56.11;;
70077;Laerm;57448;51.490;5.436;2023-09-19T13:53:31;52.05;47.07;56.98;;
70077;Laerm;57448;51.490;5.436;2023-09-19T13:55:57;52.76;47.69;57.88;;
70077;Laerm;57448;51.490;5.436;2023-09-19T13:58:22;50.74;47.42;57.42;;
70077;Laerm;57448;51.490;5.436;2023-09-19T14:00:48;54.67;47.43;68.68;;
70077;Laerm;57448;51.490;5.436;2023-09-19T14:03:13;51.53;47.40;57.13;;
70077;Laerm;57448;51.490;5.436;2023-09-19T14:05:39;50.57;46.04;56.00;;
70077;Laerm;57448;51.490;5.436;2023-09-19T14:08:04;54.89;48.80;61.21;;
70077;Laerm;57448;51.490;5.436;2023-09-19T14:10:30;52.23;47.35;57.38;;
70077;Laerm;57448;51.490;5.436;2023-09-19T14:12:56;53.16;46.49;65.11;;
70077;Laerm;57448;51.490;5.436;2023-09-19T14:15:23;54.13;48.71;60.32;;
70077;Laerm;57448;51.490;5.436;2023-09-19T14:17:54;53.86;47.80;66.53;;
70077;Laerm;57448;51.490;5.436;2023-09-19T14:20:20;54.44;49.49;68.10;;
70077;Laerm;57448;51.490;5.436;2023-09-19T14:22:47;55.12;48.85;66.51;;
70077;Laerm;57448;51.490;5.436;2023-09-19T14:25:13;53.19;47.76;58.96;;
70077;Laerm;57448;51.490;5.436;2023-09-19T14:27:38;53.30;48.50;66.62;;
70077;Laerm;57448;51.490;5.436;2023-09-19T14:30:04;54.06;48.38;63.68;;
70077;Laerm;57448;51.490;5.436;2023-09-19T14:32:30;54.41;49.90;61.55;;
70077;Laerm;57448;51.490;5.436;2023-09-19T14:34:55;54.79;47.86;66.50;;
70077;Laerm;57448;51.490;5.436;2023-09-19T14:37:21;56.13;48.03;67.60;;